sensor_id;sensor_type;location;lat;lon;timestamp;pressure;altitude;pressure_sealevel;temperature;humidity
79686;BME280;69153;47.918;11.428;2024-03-02T00:00:07;94113.63;;;8.47;65.19
79686;BME280;69153;47.918;11.428;2024-03-02T00:02:41;94113.75;;;8.44;65.67
79686;BME280;69153;47.918;11.428;2024-03-02T00:05:11;94115.94;;;8.45;65.74
79686;BME280;69153;47.918;11.428;2024-03-02T00:07:37;94112.72;;;8.41;65.73
79686;BME280;69153;47.918;11.428;2024-03-02T00:10:08;94107.91;;;8.49;65.58
79686;BME280;69153;47.918;11.428;2024-03-02T00:12:36;94108.97;;;8.51;65.60
79686;BME280;69153;47.918;11.428;2024-03-02T00:15:06;94112.97;;;8.56;64.94
79686;BME280;69153;47.918;11.428;2024-03-02T00:17:44;94105.78;;;8.56;65.26
79686;BME280;69153;47.918;11.428;2024-03-02T00:20:18;94107.91;;;8.49;65.91
79686;BME280;69153;47.918;11.428;2024-03-02T00:22:46;94106.13;;;8.46;65.60
79686;BME280;69153;47.918;11.428;2024-03-02T00:25:11;94103.31;;;8.40;65.52
79686;BME280;69153;47.918;11.428;2024-03-02T00:27:37;94098.78;;;8.28;66.06
79686;BME280;69153;47.918;11.428;2024-03-02T00:30:38;94096.25;;;8.24;66.26
79686;BME280;69153;47.918;11.428;2024-03-02T00:33:07;94092.78;;;8.28;66.17
79686;BME280;69153;47.918;11.428;2024-03-02T00:35:33;94089.50;;;8.36;65.92
79686;BME280;69153;47.918;11.428;2024-03-02T00:38:04;94085.69;;;8.37;66.17
79686;BME280;69153;47.918;11.428;2024-03-02T00:40:30;94097.47;;;8.45;65.51
79686;BME280;69153;47.918;11.428;2024-03-02T00:42:56;94080.78;;;8.48;65.22
79686;BME280;69153;47.918;11.428;2024-03-02T00:45:21;94084.16;;;8.49;65.30
79686;BME280;69153;47.918;11.428;2024-03-02T00:47:47;94086.16;;;8.45;65.42
79686;BME280;69153;47.918;11.428;2024-03-02T00:50:13;94080.78;;;8.48;64.91
79686;BME280;69153;47.918;11.428;2024-03-02T00:52:40;94080.59;;;8.43;65.33
79686;BME280;69153;47.918;11.428;2024-03-02T00:55:07;94078.41;;;8.41;65.70
79686;BME280;69153;47.918;11.428;2024-03-02T00:57:35;94076.91;;;8.40;65.62
79686;BME280;69153;47.918;11.428;2024-03-02T01:00:01;94077.66;;;8.41;65.16
79686;BME280;69153;47.918;11.428;2024-03-02T01:02:28;94078.09;;;8.39;65.40
79686;BME280;69153;47.918;11.428;2024-03-02T01:04:53;94084.09;;;8.40;65.28
79686;BME280;69153;47.918;11.428;2024-03-02T01:07:19;94084.00;;;8.43;65.15
79686;BME280;69153;47.918;11.428;2024-03-02T01:09:44;94078.72;;;8.43;65.00
79686;BME280;69153;47.918;11.428;2024-03-02T01:12:10;94077.50;;;8.44;65.02
79686;BME280;69153;47.918;11.428;2024-03-02T01:14:35;94075.63;;;8.45;64.82
79686;BME280;69153;47.918;11.428;2024-03-02T01:17:01;94072.97;;;8.45;64.65
79686;BME280;69153;47.918;11.428;2024-03-02T01:19:29;94071.06;;;8.45;64.79
79686;BME280;69153;47.918;11.428;2024-03-02T01:21:55;94062.00;;;8.46;64.52
79686;BME280;69153;47.918;11.428;2024-03-02T01:24:20;94068.44;;;8.45;64.60
79686;BME280;69153;47.918;11.428;2024-03-02T01:26:46;94066.25;;;8.44;64.41
79686;BME280;69153;47.918;11.428;2024-03-02T01:29:11;94070.78;;;8.43;64.53
79686;BME280;69153;47.918;11.428;2024-03-02T01:31:37;94066.97;;;8.44;64.64
79686;BME280;69153;47.918;11.428;2024-03-02T01:34:02;94070.34;;;8.45;64.32
79686;BME280;69153;47.918;11.428;2024-03-02T01:36:27;94065.50;;;8.43;64.78
79686;BME280;69153;47.918;11.428;2024-03-02T01:38:53;94064.31;;;8.44;64.79
79686;BME280;69153;47.918;11.428;2024-03-02T01:41:18;94069.00;;;8.40;64.91
79686;BME280;69153;47.918;11.428;2024-03-02T01:43:44;94062.66;;;8.38;64.63
79686;BME280;69153;47.918;11.428;2024-03-02T01:46:10;94058.34;;;8.31;64.81
79686;BME280;69153;47.918;11.428;2024-03-02T01:48:35;94054.25;;;8.30;64.03
79686;BME280;69153;47.918;11.428;2024-03-02T01:51:01;94053.72;;;8.22;64.44
79686;BME280;69153;47.918;11.428;2024-03-02T01:53:26;94056.00;;;8.11;64.55
79686;BME280;69153;47.918;11.428;2024-03-02T01:55:53;94052.97;;;8.00;64.88
79686;BME280;69153;47.918;11.428;2024-03-02T01:58:18;94058.66;;;7.99;64.95
79686;BME280;69153;47.918;11.428;2024-03-02T02:00:44;94051.41;;;7.90;64.95
79686;BME280;69153;47.918;11.428;2024-03-02T02:03:10;94049.22;;;7.88;65.45
79686;BME280;69153;47.918;11.428;2024-03-02T02:05:35;94045.94;;;7.84;65.60
79686;BME280;69153;47.918;11.428;2024-03-02T02:08:01;94041.63;;;7.91;65.27
79686;BME280;69153;47.918;11.428;2024-03-02T02:10:26;94038.41;;;7.96;64.93
79686;BME280;69153;47.918;11.428;2024-03-02T02:12:52;94040.22;;;7.99;64.76
79686;BME280;69153;47.918;11.428;2024-03-02T02:15:28;94035.25;;;8.01;64.71
79686;BME280;69153;47.918;11.428;2024-03-02T02:17:54;94037.88;;;8.01;65.06
79686;BME280;69153;47.918;11.428;2024-03-02T02:20:20;94033.66;;;8.03;65.34
79686;BME280;69153;47.918;11.428;2024-03-02T02:23:03;94024.69;;;8.01;65.39
79686;BME280;69153;47.918;11.428;2024-03-02T02:25:29;94032.03;;;8.06;65.16
79686;BME280;69153;47.918;11.428;2024-03-02T02:27:55;94030.41;;;7.99;64.99
79686;BME280;69153;47.918;11.428;2024-03-02T02:30:29;94029.66;;;7.99;65.00
79686;BME280;69153;47.918;11.428;2024-03-02T02:32:55;94026.91;;;8.02;64.80
79686;BME280;69153;47.918;11.428;2024-03-02T02:35:21;94027.88;;;7.96;65.02
79686;BME280;69153;47.918;11.428;2024-03-02T02:37:48;94026.72;;;7.97;65.48
79686;BME280;69153;47.918;11.428;2024-03-02T02:40:14;94020.16;;;8.01;64.60
79686;BME280;69153;47.918;11.428;2024-03-02T02:42:40;94020.47;;;8.03;65.06
79686;BME280;69153;47.918;11.428;2024-03-02T02:45:06;94019.41;;;8.01;65.39
79686;BME280;69153;47.918;11.428;2024-03-02T02:47:32;94025.91;;;8.09;64.79
79686;BME280;69153;47.918;11.428;2024-03-02T02:50:06;94015.63;;;8.02;65.01
79686;BME280;69153;47.918;11.428;2024-03-02T02:52:33;94030.28;;;8.03;64.96
79686;BME280;69153;47.918;11.428;2024-03-02T02:54:59;94015.94;;;8.04;64.89
79686;BME280;69153;47.918;11.428;2024-03-02T02:57:24;94024.13;;;8.06;64.81
79686;BME280;69153;47.918;11.428;2024-03-02T02:59:50;94017.28;;;8.08;65.11
79686;BME280;69153;47.918;11.428;2024-03-02T03:02:15;94029.19;;;8.13;64.88
79686;BME280;69153;47.918;11.428;2024-03-02T03:04:41;94028.03;;;8.14;65.10
79686;BME280;69153;47.918;11.428;2024-03-02T03:07:06;94030.97;;;8.16;64.68
79686;BME280;69153;47.918;11.428;2024-03-02T03:09:32;94034.63;;;8.18;65.00
79686;BME280;69153;47.918;11.428;2024-03-02T03:11:57;94035.81;;;8.17;64.67
79686;BME280;69153;47.918;11.428;2024-03-02T03:14:22;94040.38;;;8.17;64.75
79686;BME280;69153;47.918;11.428;2024-03-02T03:16:48;94050.47;;;8.18;64.72
79686;BME280;69153;47.918;11.428;2024-03-02T03:19:13;94044.66;;;8.23;64.67
79686;BME280;69153;47.918;11.428;2024-03-02T03:21:39;94043.88;;;8.36;63.85
79686;BME280;69153;47.918;11.428;2024-03-02T03:24:04;94044.22;;;8.25;64.34
79686;BME280;69153;47.918;11.428;2024-03-02T03:26:30;94046.38;;;8.17;64.67
79686;BME280;69153;47.918;11.428;2024-03-02T03:28:55;94048.94;;;8.08;65.08
79686;BME280;69153;47.918;11.428;2024-03-02T03:31:21;94044.81;;;8.07;65.16
79686;BME280;69153;47.918;11.428;2024-03-02T03:33:46;94044.69;;;8.11;65.21
79686;BME280;69153;47.918;11.428;2024-03-02T03:36:11;94052.72;;;8.07;65.20
79686;BME280;69153;47.918;11.428;2024-03-02T03:38:37;94058.00;;;8.07;64.98
79686;BME280;69153;47.918;11.428;2024-03-02T03:41:02;94053.78;;;8.10;64.74
79686;BME280;69153;47.918;11.428;2024-03-02T03:43:28;94048.50;;;8.10;64.73
79686;BME280;69153;47.918;11.428;2024-03-02T03:45:54;94057.81;;;8.02;65.12
79686;BME280;69153;47.918;11.428;2024-03-02T03:48:20;94054.75;;;8.03;65.12
79686;BME280;69153;47.918;11.428;2024-03-02T03:50:45;94062.69;;;8.03;65.07
79686;BME280;69153;47.918;11.428;2024-03-02T03:53:10;94052.72;;;8.07;64.59
79686;BME280;69153;47.918;11.428;2024-03-02T03:55:36;94054.34;;;8.05;65.14
79686;BME280;69153;47.918;11.428;2024-03-02T03:58:01;94056.09;;;8.08;65.02
79686;BME280;69153;47.918;11.428;2024-03-02T04:00:27;94056.25;;;8.04;64.92
79686;BME280;69153;47.918;11.428;2024-03-02T04:02:52;94064.88;;;8.05;65.06
79686;BME280;69153;47.918;11.428;2024-03-02T04:05:18;94062.84;;;8.09;65.13
79686;BME280;69153;47.918;11.428;2024-03-02T04:07:43;94054.19;;;8.08;64.91
79686;BME280;69153;47.918;11.428;2024-03-02T04:10:10;94059.06;;;8.10;64.63
79686;BME280;69153;47.918;11.428;2024-03-02T04:12:36;94067.38;;;8.08;64.83
79686;BME280;69153;47.918;11.428;2024-03-02T04:15:06;94065.50;;;8.09;64.89
79686;BME280;69153;47.918;11.428;2024-03-02T04:17:32;94066.13;;;8.13;64.65
79686;BME280;69153;47.918;11.428;2024-03-02T04:19:59;94078.38;;;8.07;65.10
79686;BME280;69153;47.918;11.428;2024-03-02T04:22:26;94078.38;;;8.07;65.19
79686;BME280;69153;47.918;11.428;2024-03-02T04:24:51;94077.34;;;8.04;65.14
79686;BME280;69153;47.918;11.428;2024-03-02T04:27:17;94075.97;;;8.00;65.25
79686;BME280;69153;47.918;11.428;2024-03-02T04:29:42;94079.53;;;8.06;65.33
79686;BME280;69153;47.918;11.428;2024-03-02T04:32:08;94076.28;;;8.02;65.31
79686;BME280;69153;47.918;11.428;2024-03-02T04:34:33;94083.34;;;8.05;65.47
79686;BME280;69153;47.918;11.428;2024-03-02T04:36:59;94092.44;;;8.04;65.48
79686;BME280;69153;47.918;11.428;2024-03-02T04:39:24;94092.53;;;8.00;65.72
79686;BME280;69153;47.918;11.428;2024-03-02T04:41:50;94093.91;;;7.92;65.83
79686;BME280;69153;47.918;11.428;2024-03-02T04:44:15;94095.19;;;7.87;66.10
79686;BME280;69153;47.918;11.428;2024-03-02T04:46:41;94091.59;;;7.94;65.89
79686;BME280;69153;47.918;11.428;2024-03-02T04:49:06;94101.94;;;8.01;65.76
79686;BME280;69153;47.918;11.428;2024-03-02T04:51:31;94103.91;;;8.10;65.76
79686;BME280;69153;47.918;11.428;2024-03-02T04:53:57;94106.44;;;8.13;65.23
79686;BME280;69153;47.918;11.428;2024-03-02T04:56:22;94107.34;;;8.19;65.36
79686;BME280;69153;47.918;11.428;2024-03-02T04:58:48;94112.50;;;8.23;65.05
79686;BME280;69153;47.918;11.428;2024-03-02T05:01:13;94107.44;;;8.29;64.90
79686;BME280;69153;47.918;11.428;2024-03-02T05:03:39;94112.41;;;8.27;65.28
79686;BME280;69153;47.918;11.428;2024-03-02T05:06:04;94114.25;;;8.04;65.57
79686;BME280;69153;47.918;11.428;2024-03-02T05:08:31;94115.28;;;8.07;65.72
79686;BME280;69153;47.918;11.428;2024-03-02T05:10:56;94117.13;;;7.97;66.26
79686;BME280;69153;47.918;11.428;2024-03-02T05:13:42;94117.63;;;7.92;66.18
79686;BME280;69153;47.918;11.428;2024-03-02T05:16:07;94116.28;;;7.87;66.12
79686;BME280;69153;47.918;11.428;2024-03-02T05:18:32;94113.09;;;7.93;66.45
79686;BME280;69153;47.918;11.428;2024-03-02T05:20:58;94111.84;;;7.97;66.13
79686;BME280;69153;47.918;11.428;2024-03-02T05:23:24;94117.94;;;8.07;65.59
79686;BME280;69153;47.918;11.428;2024-03-02T05:25:49;94116.47;;;8.06;65.89
79686;BME280;69153;47.918;11.428;2024-03-02T05:28:15;94112.97;;;8.09;65.88
79686;BME280;69153;47.918;11.428;2024-03-02T05:30:42;94112.13;;;8.12;65.72
79686;BME280;69153;47.918;11.428;2024-03-02T05:33:07;94108.53;;;8.06;66.05
79686;BME280;69153;47.918;11.428;2024-03-02T05:35:33;94111.78;;;7.63;67.05
79686;BME280;69153;47.918;11.428;2024-03-02T05:37:58;94104.09;;;7.56;67.75
79686;BME280;69153;47.918;11.428;2024-03-02T05:40:24;94114.50;;;7.72;67.47
79686;BME280;69153;47.918;11.428;2024-03-02T05:42:49;94112.50;;;7.88;66.56
79686;BME280;69153;47.918;11.428;2024-03-02T05:45:15;94120.72;;;8.03;66.02
79686;BME280;69153;47.918;11.428;2024-03-02T05:47:41;94129.66;;;8.06;66.14
79686;BME280;69153;47.918;11.428;2024-03-02T05:50:07;94121.84;;;8.15;65.63
79686;BME280;69153;47.918;11.428;2024-03-02T05:52:32;94125.75;;;8.10;65.88
79686;BME280;69153;47.918;11.428;2024-03-02T05:54:58;94129.63;;;8.18;65.43
79686;BME280;69153;47.918;11.428;2024-03-02T05:57:24;94131.13;;;8.07;66.44
79686;BME280;69153;47.918;11.428;2024-03-02T06:00:08;94125.63;;;8.14;65.75
79686;BME280;69153;47.918;11.428;2024-03-02T06:02:33;94130.41;;;7.94;66.50
79686;BME280;69153;47.918;11.428;2024-03-02T06:05:00;94124.94;;;7.88;66.86
79686;BME280;69153;47.918;11.428;2024-03-02T06:07:26;94133.91;;;7.91;66.96
79686;BME280;69153;47.918;11.428;2024-03-02T06:09:51;94137.28;;;7.91;66.60
79686;BME280;69153;47.918;11.428;2024-03-02T06:12:18;94135.47;;;8.01;66.37
79686;BME280;69153;47.918;11.428;2024-03-02T06:14:43;94133.75;;;8.07;65.95
79686;BME280;69153;47.918;11.428;2024-03-02T06:17:09;94129.34;;;8.04;65.80
79686;BME280;69153;47.918;11.428;2024-03-02T06:19:34;94138.75;;;8.05;65.51
79686;BME280;69153;47.918;11.428;2024-03-02T06:22:00;94143.91;;;7.96;66.20
79686;BME280;69153;47.918;11.428;2024-03-02T06:24:26;94139.38;;;7.96;66.20
79686;BME280;69153;47.918;11.428;2024-03-02T06:26:51;94132.19;;;7.97;65.85
79686;BME280;69153;47.918;11.428;2024-03-02T06:29:17;94140.00;;;8.00;65.56
79686;BME280;69153;47.918;11.428;2024-03-02T06:31:42;94135.47;;;8.01;65.48
79686;BME280;69153;47.918;11.428;2024-03-02T06:34:08;94136.94;;;8.02;65.55
79686;BME280;69153;47.918;11.428;2024-03-02T06:36:34;94135.88;;;8.12;65.08
79686;BME280;69153;47.918;11.428;2024-03-02T06:39:00;94125.75;;;8.10;65.55
79686;BME280;69153;47.918;11.428;2024-03-02T06:41:25;94127.25;;;7.99;65.91
79686;BME280;69153;47.918;11.428;2024-03-02T06:43:52;94116.91;;;8.04;65.46
79686;BME280;69153;47.918;11.428;2024-03-02T06:46:27;94124.09;;;7.91;65.90
79686;BME280;69153;47.918;11.428;2024-03-02T06:48:52;94117.22;;;7.94;65.62
79686;BME280;69153;47.918;11.428;2024-03-02T06:51:18;94123.47;;;7.87;65.79
79686;BME280;69153;47.918;11.428;2024-03-02T06:53:43;94128.31;;;7.88;65.86
79686;BME280;69153;47.918;11.428;2024-03-02T06:56:09;94121.75;;;7.93;65.68
79686;BME280;69153;47.918;11.428;2024-03-02T06:58:34;94128.31;;;7.88;65.79
79686;BME280;69153;47.918;11.428;2024-03-02T07:01:00;94125.81;;;7.60;66.60
79686;BME280;69153;47.918;11.428;2024-03-02T07:03:28;94120.22;;;7.58;67.03
79686;BME280;69153;47.918;11.428;2024-03-02T07:05:53;94126.22;;;7.58;67.28
79686;BME280;69153;47.918;11.428;2024-03-02T07:08:19;94117.81;;;7.63;66.61
79686;BME280;69153;47.918;11.428;2024-03-02T07:10:44;94122.44;;;7.59;66.62
79686;BME280;69153;47.918;11.428;2024-03-02T07:13:10;94125.47;;;7.70;66.45
79686;BME280;69153;47.918;11.428;2024-03-02T07:15:35;94125.81;;;7.72;66.30
79686;BME280;69153;47.918;11.428;2024-03-02T07:18:36;94125.91;;;7.31;67.84
79686;BME280;69153;47.918;11.428;2024-03-02T07:21:10;94128.75;;;7.49;67.86
79686;BME280;69153;47.918;11.428;2024-03-02T07:23:36;94124.75;;;7.44;67.50
79686;BME280;69153;47.918;11.428;2024-03-02T07:26:01;94127.06;;;7.30;68.19
79686;BME280;69153;47.918;11.428;2024-03-02T07:28:28;94129.28;;;7.31;68.36
79686;BME280;69153;47.918;11.428;2024-03-02T07:31:01;94130.34;;;7.46;67.86
79686;BME280;69153;47.918;11.428;2024-03-02T07:33:27;94137.41;;;7.62;67.42
79686;BME280;69153;47.918;11.428;2024-03-02T07:35:54;94134.34;;;7.64;67.25
79686;BME280;69153;47.918;11.428;2024-03-02T07:38:20;94132.97;;;7.72;67.45
79686;BME280;69153;47.918;11.428;2024-03-02T07:40:47;94134.13;;;7.83;66.71
79686;BME280;69153;47.918;11.428;2024-03-02T07:43:16;94138.03;;;7.92;66.33
79686;BME280;69153;47.918;11.428;2024-03-02T07:45:41;94142.13;;;7.93;66.19
79686;BME280;69153;47.918;11.428;2024-03-02T07:48:07;94147.94;;;7.87;66.68
79686;BME280;69153;47.918;11.428;2024-03-02T07:50:32;94147.28;;;7.96;66.76
79686;BME280;69153;47.918;11.428;2024-03-02T07:53:01;94141.69;;;8.07;66.51
79686;BME280;69153;47.918;11.428;2024-03-02T07:55:26;94150.22;;;8.11;66.07
79686;BME280;69153;47.918;11.428;2024-03-02T07:57:51;94149.06;;;8.12;66.38
79686;BME280;69153;47.918;11.428;2024-03-02T08:00:17;94146.63;;;8.17;66.05
79686;BME280;69153;47.918;11.428;2024-03-02T08:02:43;94149.91;;;8.09;66.05
79686;BME280;69153;47.918;11.428;2024-03-02T08:05:08;94153.31;;;7.97;66.84
79686;BME280;69153;47.918;11.428;2024-03-02T08:07:34;94148.78;;;7.84;67.30
79686;BME280;69153;47.918;11.428;2024-03-02T08:10:00;94157.53;;;7.81;67.77
79686;BME280;69153;47.918;11.428;2024-03-02T08:12:25;94156.03;;;7.93;66.71
79686;BME280;69153;47.918;11.428;2024-03-02T08:14:51;94149.50;;;7.98;67.17
79686;BME280;69153;47.918;11.428;2024-03-02T08:17:17;94145.28;;;8.00;66.84
79686;BME280;69153;47.918;11.428;2024-03-02T08:19:43;94143.38;;;8.13;66.40
79686;BME280;69153;47.918;11.428;2024-03-02T08:22:09;94143.03;;;8.11;65.62
79686;BME280;69153;47.918;11.428;2024-03-02T08:24:35;94139.00;;;8.19;65.91
79686;BME280;69153;47.918;11.428;2024-03-02T08:27:01;94139.97;;;8.25;65.61
79686;BME280;69153;47.918;11.428;2024-03-02T08:29:26;94140.91;;;8.19;65.38
79686;BME280;69153;47.918;11.428;2024-03-02T08:31:53;94143.13;;;8.20;65.74
79686;BME280;69153;47.918;11.428;2024-03-02T08:34:18;94142.78;;;8.31;65.67
79686;BME280;69153;47.918;11.428;2024-03-02T08:36:44;94147.03;;;8.41;65.85
79686;BME280;69153;47.918;11.428;2024-03-02T08:39:09;94151.94;;;8.52;65.80
79686;BME280;69153;47.918;11.428;2024-03-02T08:41:45;94156.75;;;8.66;65.32
79686;BME280;69153;47.918;11.428;2024-03-02T08:44:12;94157.00;;;8.81;65.01
79686;BME280;69153;47.918;11.428;2024-03-02T08:46:39;94160.13;;;8.88;63.87
79686;BME280;69153;47.918;11.428;2024-03-02T08:49:05;94154.06;;;9.01;63.88
79686;BME280;69153;47.918;11.428;2024-03-02T08:51:30;94149.97;;;9.61;61.57
79686;BME280;69153;47.918;11.428;2024-03-02T08:53:56;94149.63;;;9.90;61.82
79686;BME280;69153;47.918;11.428;2024-03-02T08:56:22;94147.41;;;10.65;60.58
79686;BME280;69153;47.918;11.428;2024-03-02T08:58:49;94148.53;;;11.70;55.75
79686;BME280;69153;47.918;11.428;2024-03-02T09:01:15;94146.44;;;11.84;55.36
79686;BME280;69153;47.918;11.428;2024-03-02T09:03:42;94145.97;;;11.94;54.52
79686;BME280;69153;47.918;11.428;2024-03-02T09:06:10;94145.66;;;11.50;55.83
79686;BME280;69153;47.918;11.428;2024-03-02T09:08:36;94157.56;;;10.49;58.88
79686;BME280;69153;47.918;11.428;2024-03-02T09:11:03;94156.78;;;10.30;59.44
79686;BME280;69153;47.918;11.428;2024-03-02T09:13:28;94155.19;;;10.23;59.54
79686;BME280;69153;47.918;11.428;2024-03-02T09:15:54;94152.84;;;10.25;59.81
79686;BME280;69153;47.918;11.428;2024-03-02T09:18:20;94148.84;;;10.39;59.04
79686;BME280;69153;47.918;11.428;2024-03-02T09:20:45;94146.81;;;10.52;59.20
79686;BME280;69153;47.918;11.428;2024-03-02T09:23:11;94152.56;;;10.78;58.74
79686;BME280;69153;47.918;11.428;2024-03-02T09:25:37;94149.84;;;11.24;57.99
79686;BME280;69153;47.918;11.428;2024-03-02T09:28:02;94150.69;;;11.90;55.67
79686;BME280;69153;47.918;11.428;2024-03-02T09:30:28;94143.25;;;12.89;52.89
79686;BME280;69153;47.918;11.428;2024-03-02T09:32:53;94148.81;;;13.59;51.16
79686;BME280;69153;47.918;11.428;2024-03-02T09:35:19;94152.31;;;13.36;51.90
79686;BME280;69153;47.918;11.428;2024-03-02T09:37:45;94143.91;;;13.14;51.75
79686;BME280;69153;47.918;11.428;2024-03-02T09:40:11;94141.81;;;13.03;52.01
79686;BME280;69153;47.918;11.428;2024-03-02T09:42:37;94144.09;;;12.96;51.93
79686;BME280;69153;47.918;11.428;2024-03-02T09:45:03;94137.50;;;13.06;51.94
79686;BME280;69153;47.918;11.428;2024-03-02T09:47:29;94138.91;;;13.31;52.44
79686;BME280;69153;47.918;11.428;2024-03-02T09:49:54;94144.09;;;13.69;52.21
79686;BME280;69153;47.918;11.428;2024-03-02T09:52:22;94137.09;;;14.21;50.64
79686;BME280;69153;47.918;11.428;2024-03-02T09:54:48;94133.09;;;14.92;49.35
79686;BME280;69153;47.918;11.428;2024-03-02T09:57:14;94138.31;;;16.38;45.06
79686;BME280;69153;47.918;11.428;2024-03-02T09:59:40;94126.97;;;17.64;41.83
79686;BME280;69153;47.918;11.428;2024-03-02T10:02:05;94130.84;;;17.80;41.50
79686;BME280;69153;47.918;11.428;2024-03-02T10:04:33;94127.81;;;19.38;39.12
79686;BME280;69153;47.918;11.428;2024-03-02T10:07:16;94125.31;;;21.67;35.67
79686;BME280;69153;47.918;11.428;2024-03-02T10:09:43;94123.59;;;23.01;33.56
79686;BME280;69153;47.918;11.428;2024-03-02T10:12:11;94121.38;;;22.26;33.37
79686;BME280;69153;47.918;11.428;2024-03-02T10:14:38;94123.22;;;22.84;33.10
79686;BME280;69153;47.918;11.428;2024-03-02T10:17:08;94117.25;;;23.33;30.81
79686;BME280;69153;47.918;11.428;2024-03-02T10:19:35;94117.75;;;24.35;29.13
79686;BME280;69153;47.918;11.428;2024-03-02T10:22:01;94103.69;;;25.16;28.34
79686;BME280;69153;47.918;11.428;2024-03-02T10:24:43;94099.44;;;25.97;28.01
79686;BME280;69153;47.918;11.428;2024-03-02T10:27:23;94104.28;;;26.44;27.42
79686;BME280;69153;47.918;11.428;2024-03-02T10:29:49;94105.03;;;26.45;27.04
79686;BME280;69153;47.918;11.428;2024-03-02T10:32:16;94091.31;;;26.83;26.55
79686;BME280;69153;47.918;11.428;2024-03-02T10:34:46;94096.34;;;26.31;26.51
79686;BME280;69153;47.918;11.428;2024-03-02T10:37:12;94085.66;;;26.18;26.80
79686;BME280;69153;47.918;11.428;2024-03-02T10:39:39;94093.97;;;26.27;26.89
79686;BME280;69153;47.918;11.428;2024-03-02T10:42:08;94075.38;;;25.93;26.50
79686;BME280;69153;47.918;11.428;2024-03-02T10:44:34;94074.47;;;25.53;28.00
79686;BME280;69153;47.918;11.428;2024-03-02T10:47:04;94068.69;;;25.72;27.02
79686;BME280;69153;47.918;11.428;2024-03-02T10:49:31;94068.06;;;25.05;27.94
79686;BME280;69153;47.918;11.428;2024-03-02T10:51:58;94068.41;;;24.57;29.52
79686;BME280;69153;47.918;11.428;2024-03-02T10:54:24;94068.41;;;23.51;31.27
79686;BME280;69153;47.918;11.428;2024-03-02T10:56:58;94056.72;;;24.06;30.61
79686;BME280;69153;47.918;11.428;2024-03-02T10:59:35;94056.34;;;24.30;29.95
79686;BME280;69153;47.918;11.428;2024-03-02T11:02:04;94047.34;;;23.78;28.71
79686;BME280;69153;47.918;11.428;2024-03-02T11:04:31;94050.81;;;23.58;30.90
79686;BME280;69153;47.918;11.428;2024-03-02T11:09:28;94046.22;;;23.11;31.22
79686;BME280;69153;47.918;11.428;2024-03-02T11:12:03;94043.16;;;23.28;30.65
79686;BME280;69153;47.918;11.428;2024-03-02T11:14:31;94029.53;;;24.40;30.17
79686;BME280;69153;47.918;11.428;2024-03-02T11:17:00;94040.97;;;23.06;30.26
79686;BME280;69153;47.918;11.428;2024-03-02T11:19:27;94032.78;;;22.98;31.15
79686;BME280;69153;47.918;11.428;2024-03-02T11:21:54;94028.19;;;23.97;30.69
79686;BME280;69153;47.918;11.428;2024-03-02T11:27:05;94017.28;;;25.13;27.74
79686;BME280;69153;47.918;11.428;2024-03-02T11:32:17;94005.63;;;24.82;28.60
79686;BME280;69153;47.918;11.428;2024-03-02T11:34:45;93999.63;;;26.36;26.71
79686;BME280;69153;47.918;11.428;2024-03-02T11:37:16;94001.81;;;26.77;27.01
79686;BME280;69153;47.918;11.428;2024-03-02T11:39:44;93988.13;;;27.00;26.17
79686;BME280;69153;47.918;11.428;2024-03-02T11:42:11;93991.59;;;26.93;25.29
79686;BME280;69153;47.918;11.428;2024-03-02T11:44:37;93989.38;;;26.66;25.17
79686;BME280;69153;47.918;11.428;2024-03-02T11:47:08;93977.41;;;24.62;28.76
79686;BME280;69153;47.918;11.428;2024-03-02T11:49:44;93976.25;;;25.39;28.17
79686;BME280;69153;47.918;11.428;2024-03-02T11:52:12;93971.38;;;25.07;27.11
79686;BME280;69153;47.918;11.428;2024-03-02T11:54:41;93961.41;;;25.78;27.02
79686;BME280;69153;47.918;11.428;2024-03-02T11:57:12;93957.00;;;24.17;28.66
79686;BME280;69153;47.918;11.428;2024-03-02T11:59:38;93952.22;;;25.20;27.05
79686;BME280;69153;47.918;11.428;2024-03-02T12:02:03;93948.41;;;25.61;27.81
79686;BME280;69153;47.918;11.428;2024-03-02T12:04:29;93947.69;;;25.69;27.44
79686;BME280;69153;47.918;11.428;2024-03-02T12:06:57;93945.16;;;25.63;26.64
79686;BME280;69153;47.918;11.428;2024-03-02T12:09:27;93938.47;;;25.49;28.28
79686;BME280;69153;47.918;11.428;2024-03-02T12:12:09;93938.44;;;24.80;28.05
79686;BME280;69153;47.918;11.428;2024-03-02T12:14:36;93934.06;;;23.18;29.76
79686;BME280;69153;47.918;11.428;2024-03-02T12:17:03;93928.38;;;21.46;33.26
79686;BME280;69153;47.918;11.428;2024-03-02T12:19:30;93918.41;;;22.41;32.15
79686;BME280;69153;47.918;11.428;2024-03-02T12:21:57;93909.66;;;23.31;30.39
79686;BME280;69153;47.918;11.428;2024-03-02T12:24:24;93906.53;;;23.48;29.99
79686;BME280;69153;47.918;11.428;2024-03-02T12:26:50;93907.06;;;23.26;30.18
79686;BME280;69153;47.918;11.428;2024-03-02T12:29:19;93897.47;;;21.47;32.45
79686;BME280;69153;47.918;11.428;2024-03-02T12:31:44;93895.94;;;21.52;33.95
79686;BME280;69153;47.918;11.428;2024-03-02T12:34:13;93890.00;;;21.14;32.95
79686;BME280;69153;47.918;11.428;2024-03-02T12:36:40;93887.00;;;20.21;35.03
79686;BME280;69153;47.918;11.428;2024-03-02T12:39:10;93879.34;;;19.26;36.70
79686;BME280;69153;47.918;11.428;2024-03-02T12:41:36;93877.50;;;19.15;37.98
79686;BME280;69153;47.918;11.428;2024-03-02T12:44:05;93872.25;;;19.53;37.94
79686;BME280;69153;47.918;11.428;2024-03-02T12:46:32;93865.28;;;19.63;37.09
79686;BME280;69153;47.918;11.428;2024-03-02T12:48:58;93869.56;;;19.28;37.75
79686;BME280;69153;47.918;11.428;2024-03-02T12:51:24;93867.16;;;19.01;37.98
79686;BME280;69153;47.918;11.428;2024-03-02T12:53:54;93867.38;;;19.03;38.17
79686;BME280;69153;47.918;11.428;2024-03-02T12:56:20;93864.13;;;18.55;37.83
79686;BME280;69153;47.918;11.428;2024-03-02T12:58:46;93869.06;;;17.58;39.61
79686;BME280;69153;47.918;11.428;2024-03-02T13:01:14;93862.72;;;16.87;41.12
79686;BME280;69153;47.918;11.428;2024-03-02T13:03:43;93854.09;;;17.33;40.79